Vernon, Texas
Current Conditions -  °F | °C
As of 5:16 AM on Wednesday 26 Nov 2014 (Local Time) from KF05 Reporting Station
Scattered Clouds Scattered Clouds  
Wind Chill: 28°   Ceiling: Unl
Heat Index: 34°   Visibility: 10mi
Dew Point: 27°   Wind: 7mph
Humidity: 75%   Direction: 300°WNW
Pressure: 30.05"   Gusts: NA
Location:  34.15°N, 99.28°W
Report Text: KF05 261116Z AUTO 30006KT 10SM SCT110 01/M03 A3005 RMK AO2
Loading
Personal Weather Stations






























Interactive Weather Map New forecast layout! Learn more

10-Day Weather Forecast

Advertisements
Track Severe Weather on mobile